Time;durP1;ratioP1;P1;durP2;ratioP2;P2;SDS_P1;SDS_P2;PMS_P1;PMS_P2;Temp;Humidity;BMP_temperature;BMP_pressure;BME280_temperature;BME280_humidity;BME280_pressure;Samples;Min_cycle;Max_cycle;Signal;HPM_P1;HPM_P2
2022/12/02 06:53:38;;;;;;;4.55;1.85;;;;;;;-0.15;65.66;101250.76;1669166;84;21523;-44
2022/12/02 06:56:25;;;;;;;3.15;1.60;;;;;;;-0.17;65.69;101253.25;1664192;84;21562;-46
2022/12/02 06:58:57;;;;;;;4.10;1.75;;;;;;;-0.18;66.02;101257.00;1665355;84;21083;-46
2022/12/02 07:01:31;;;;;;;6.78;4.37;;;;;;;-0.15;66.02;101258.48;1641131;86;21542;-45
2022/12/02 07:04:15;;;;;;;3.98;2.33;;;;;;;-0.13;65.95;101259.44;1613453;85;21131;-45
2022/12/02 07:06:43;;;;;;;5.90;2.42;;;;;;;-0.11;66.07;101262.61;1663143;84;21493;-49
2022/12/02 07:09:19;;;;;;;7.78;2.35;;;;;;;-0.09;65.91;101265.27;1663310;83;21067;-46
2022/12/02 07:11:52;;;;;;;6.80;2.52;;;;;;;-0.10;65.90;101257.06;1643238;84;21027;-46
2022/12/02 07:14:39;;;;;;;5.12;1.80;;;;;;;-0.09;65.72;101255.86;1629316;86;21129;-46
2022/12/02 07:17:18;;;;;;;4.33;2.00;;;;;;;-0.11;65.84;101257.47;1670665;83;21063;-40
2022/12/02 07:19:50;;;;;;;7.67;2.40;;;;;;;-0.11;66.22;101257.47;1663044;83;21053;-44
2022/12/02 07:22:30;;;;;;;4.05;2.37;;;;;;;-0.05;66.42;101256.94;1609855;85;21002;-46
2022/12/02 07:25:17;;;;;;;4.87;2.52;;;;;;;0.01;66.27;101258.97;1639119;86;21902;-44
2022/12/02 07:28:09;;;;;;;3.72;2.40;;;;;;;0.04;66.31;101256.16;1617205;86;21130;-39
2022/12/02 07:30:45;;;;;;;3.42;2.00;;;;;;;0.10;66.25;101264.22;1669932;83;20994;-45
2022/12/02 07:33:19;;;;;;;9.95;2.47;;;;;;;0.15;66.21;101254.20;1644991;84;21758;-40
2022/12/02 07:35:46;;;;;;;6.03;2.80;;;;;;;0.18;66.08;101255.67;1657879;84;20996;-38
2022/12/02 07:38:22;;;;;;;5.33;2.92;;;;;;;0.23;65.88;101252.94;1617765;84;21049;-45
2022/12/02 07:40:56;;;;;;;5.65;2.72;;;;;;;0.24;65.89;101253.45;1623903;84;21380;-40
2022/12/02 07:43:26;;;;;;;5.05;2.80;;;;;;;0.26;65.80;101246.69;1593471;84;21147;-38
2022/12/02 07:45:54;;;;;;;5.20;2.92;;;;;;;0.28;65.76;101248.94;1672667;83;21045;-45
2022/12/02 07:48:21;;;;;;;6.62;2.55;;;;;;;0.32;65.75;101250.01;1660809;83;21220;-44
2022/12/02 07:50:51;;;;;;;7.10;2.60;;;;;;;0.37;65.86;101252.44;1662565;83;21072;-39
2022/12/02 07:53:19;;;;;;;5.12;2.52;;;;;;;0.40;65.77;101246.16;1670238;83;22138;-45
2022/12/02 07:55:48;;;;;;;5.08;2.58;;;;;;;0.42;65.38;101249.73;1666819;83;21032;-44
2022/12/02 07:58:15;;;;;;;4.22;2.60;;;;;;;0.41;65.46;101249.25;1674599;83;21100;-45
2022/12/02 10:15:16;;;;;;;7.85;3.62;;;;;;;0.99;65.63;101206.92;1778372;79;22862;-39
2022/12/02 10:17:44;;;;;;;7.35;3.55;;;;;;;1.01;65.09;101204.02;1758223;80;21134;-39
2022/12/02 10:20:18;;;;;;;5.47;3.22;;;;;;;1.05;65.06;101204.67;1756057;80;21076;-38
2022/12/02 10:23:14;;;;;;;9.15;3.10;;;;;;;1.11;64.90;101210.95;1750802;80;21597;-38
2022/12/02 10:25:47;;;;;;;8.50;3.50;;;;;;;1.13;64.83;101208.05;1734619;81;20972;-39
2022/12/02 10:28:30;;;;;;;12.58;3.42;;;;;;;1.20;64.78;101204.97;1731810;81;21059;-39
2022/12/02 10:31:04;;;;;;;12.00;4.30;;;;;;;1.26;64.57;101199.73;1733328;81;20996;-38
2022/12/02 10:33:37;;;;;;;12.07;4.42;;;;;;;1.32;64.50;101203.02;1676799;81;21065;-39
2022/12/02 10:36:05;;;;;;;8.10;3.67;;;;;;;1.37;64.60;101199.41;1714797;82;21555;-39
2022/12/02 10:38:42;;;;;;;7.67;3.55;;;;;;;1.43;64.40;101194.55;1716452;81;21036;-39
2022/12/02 10:41:23;;;;;;;15.72;4.47;;;;;;;1.52;64.42;101193.34;1715661;81;21059;-38
2022/12/02 10:44:07;;;;;;;14.87;3.65;;;;;;;1.63;63.99;101196.46;1678488;81;21615;-44
2022/12/02 10:46:34;;;;;;;9.18;4.55;;;;;;;1.78;63.64;101192.05;1733797;81;20984;-45
2022/12/02 10:49:24;;;;;;;8.00;4.15;;;;;;;1.90;63.10;101197.33;1717923;82;22339;-38
2022/12/02 10:51:50;;;;;;;7.40;3.45;;;;;;;1.97;63.29;101195.14;1707228;81;21027;-38
2022/12/02 10:54:28;;;;;;;9.25;3.58;;;;;;;2.05;62.83;101197.68;1685041;81;21642;-38
2022/12/02 10:56:59;;;;;;;7.10;3.72;;;;;;;2.11;62.29;101195.39;1719453;81;20997;-38
2022/12/02 10:59:26;;;;;;;6.45;3.52;;;;;;;2.10;61.85;101196.62;1719043;81;21076;-39
2022/12/02 11:01:52;;;;;;;10.48;3.80;;;;;;;2.05;61.79;101196.80;1726155;81;21488;-38
2022/12/02 11:04:19;;;;;;;9.43;3.60;;;;;;;1.98;61.95;101194.33;1718145;81;21043;-38
2022/12/02 11:06:48;;;;;;;7.53;3.62;;;;;;;1.92;62.40;101200.48;1725279;81;20966;-39
2022/12/02 11:09:23;;;;;;;9.95;4.53;;;;;;;1.90;62.14;101194.34;1693375;81;21035;-44
2022/12/02 11:11:51;;;;;;;8.40;4.08;;;;;;;1.89;61.95;101196.45;1727960;81;21024;-44
2022/12/02 11:14:43;;;;;;;7.10;3.90;;;;;;;1.88;62.17;101199.84;1687717;83;21048;-44
2022/12/02 11:17:10;;;;;;;11.28;4.80;;;;;;;1.90;62.25;101198.62;1690051;83;21507;-44
2022/12/02 11:19:44;;;;;;;9.43;3.98;;;;;;;1.93;62.06;101203.95;1729255;81;21096;-43
2022/12/02 11:22:47;;;;;;;7.75;4.03;;;;;;;1.86;62.17;101202.36;1729131;81;20976;-46
2022/12/02 11:25:43;;;;;;;;;;;;;;;1.86;61.93;101192.03;1608480;88;21519;-45
2022/12/02 11:28:18;;;;;;;7.78;4.08;;;;;;;1.85;61.96;101197.09;1603168;88;20114;-46
2022/12/02 11:30:45;;;;;;;8.90;4.10;;;;;;;1.82;61.97;101192.69;1603356;88;21063;-46
2022/12/02 11:33:35;;;;;;;9.00;4.05;;;;;;;1.81;61.83;101186.16;1607460;88;21160;-45
2022/12/02 11:36:07;;;;;;;7.70;4.15;;;;;;;1.78;61.84;101188.17;1588296;88;21014;-46
2022/12/02 11:38:50;;;;;;;14.58;4.30;;;;;;;1.74;61.91;101194.39;1610962;88;21088;-45
2022/12/02 11:41:25;;;;;;;7.92;4.25;;;;;;;1.66;61.92;101195.30;1599660;88;21065;-45
2022/12/02 11:44:11;;;;;;;10.08;4.10;;;;;;;1.58;62.01;101196.63;1604531;88;21482;-46
2022/12/02 11:46:44;;;;;;;17.23;4.83;;;;;;;1.54;62.18;101199.85;1606213;88;21041;-46
2022/12/02 11:49:30;;;;;;;10.18;4.70;;;;;;;1.48;62.15;101195.27;1603560;87;21124;-46
2022/12/02 11:52:11;;;;;;;9.50;3.90;;;;;;;1.39;62.16;101201.23;1604897;86;21100;-44
2022/12/02 11:54:51;;;;;;;11.00;4.12;;;;;;;1.34;62.28;101200.14;1589948;88;21084;-39
2022/12/02 11:57:25;;;;;;;9.85;4.62;;;;;;;1.26;62.67;101199.73;1606035;86;21281;-38
2022/12/02 11:59:51;;;;;;;11.03;3.75;;;;;;;1.25;62.83;101211.26;1609471;87;21109;-45
2022/12/02 12:02:20;;;;;;;8.75;3.77;;;;;;;1.22;62.95;101205.96;1714057;80;21518;-38
2022/12/02 12:05:05;;;;;;;10.75;4.17;;;;;;;1.18;62.94;101202.73;1752827;80;21579;-44
2022/12/02 12:07:46;;;;;;;8.65;4.50;;;;;;;1.18;63.05;101213.04;1751046;80;21019;-39
2022/12/02 12:10:34;;;;;;;9.30;4.25;;;;;;;1.17;63.43;101216.03;1745877;80;21534;-45
2022/12/02 12:13:22;;;;;;;14.47;4.47;;;;;;;1.17;63.45;101212.16;1745455;80;21420;-39
2022/12/02 12:15:57;;;;;;;10.45;4.83;;;;;;;1.15;63.45;101217.61;1757699;80;21048;-39
2022/12/02 12:18:43;;;;;;;12.47;5.30;;;;;;;1.15;63.51;101215.03;1754298;80;21488;-45
2022/12/02 12:21:09;;;;;;;12.45;3.87;;;;;;;1.17;63.40;101217.72;1747311;80;21585;-39
2022/12/02 12:23:39;;;;;;;11.40;4.15;;;;;;;1.14;63.56;101219.72;1744220;80;21566;-39
2022/12/02 12:26:06;;;;;;;9.08;4.42;;;;;;;1.13;63.59;101217.95;1753526;81;20996;-44
2022/12/02 12:28:36;;;;;;;10.55;4.60;;;;;;;1.10;63.78;101224.63;1754647;80;21135;-38
2022/12/02 12:31:04;;;;;;;10.20;4.33;;;;;;;1.09;63.84;101225.44;1782169;80;20989;-38
2022/12/02 12:33:31;;;;;;;19.25;5.22;;;;;;;1.06;63.70;101219.73;1759864;81;21064;-45
2022/12/02 12:35:58;;;;;;;10.85;4.70;;;;;;;1.03;63.86;101223.02;1771806;81;20965;-38
2022/12/02 12:38:28;;;;;;;10.25;5.25;;;;;;;1.02;64.32;101224.23;1752180;80;21071;-44
2022/12/02 12:40:56;;;;;;;12.75;5.25;;;;;;;1.04;64.50;101225.19;1763619;80;21303;-38
2022/12/02 12:43:22;;;;;;;12.82;5.15;;;;;;;1.06;64.39;101227.46;1736828;80;21053;-38
2022/12/02 12:45:49;;;;;;;9.75;5.17;;;;;;;1.03;64.36;101228.58;1765251;80;21011;-44
2022/12/02 12:48:15;;;;;;;11.40;4.70;;;;;;;1.01;64.49;101231.08;1760660;80;21052;-44
2022/12/02 12:50:42;;;;;;;12.43;5.62;;;;;;;1.05;64.69;101238.17;1761017;80;20988;-38
2022/12/02 12:53:08;;;;;;;12.07;5.60;;;;;;;1.07;64.83;101234.38;1760148;80;21135;-44
2022/12/02 12:55:34;;;;;;;14.35;4.95;;;;;;;1.05;64.78;101238.17;1743075;80;21016;-45
2022/12/02 12:58:01;;;;;;;10.72;4.97;;;;;;;1.03;64.65;101238.47;1750929;80;21460;-39
2022/12/02 13:00:28;;;;;;;18.85;5.80;;;;;;;1.01;64.76;101246.95;1743550;80;21056;-43
2022/12/02 13:02:56;;;;;;;17.65;5.83;;;;;;;1.00;64.81;101243.48;1744423;80;21003;-45
2022/12/02 13:05:22;;;;;;;13.30;5.10;;;;;;;1.02;64.83;101250.88;1763127;80;21499;-44
2022/12/02 13:07:49;;;;;;;9.70;5.15;;;;;;;0.99;64.69;101249.45;1748113;80;21495;-38
2022/12/02 13:10:15;;;;;;;12.40;6.33;;;;;;;0.96;64.86;101257.00;1770772;80;21014;-43
2022/12/02 13:12:42;;;;;;;14.25;5.25;;;;;;;0.96;65.10;101252.25;1754424;80;20999;-44
2022/12/02 13:15:09;;;;;;;10.95;5.05;;;;;;;0.95;65.31;101247.91;1743772;80;21092;-38
2022/12/02 13:17:37;;;;;;;11.22;4.97;;;;;;;0.96;65.54;101253.13;1732363;81;20988;-43
2022/12/02 13:20:05;;;;;;;18.62;5.28;;;;;;;0.97;65.50;101246.28;1739216;81;21042;-40
2022/12/02 13:22:32;;;;;;;9.80;4.12;;;;;;;0.95;65.50;101241.06;1751196;81;20981;-40
2022/12/02 13:24:58;;;;;;;11.53;4.85;;;;;;;0.94;65.57;101245.73;1748089;81;21071;-45
2022/12/02 13:27:25;;;;;;;14.40;5.15;;;;;;;0.93;65.60;101248.20;1741504;81;21009;-45
2022/12/02 13:29:52;;;;;;;12.82;4.78;;;;;;;0.95;65.71;101247.50;1749954;81;21061;-45
2022/12/02 13:32:18;;;;;;;11.75;4.35;;;;;;;0.96;65.89;101241.94;1737132;81;21377;-40
2022/12/02 13:34:44;;;;;;;10.68;4.90;;;;;;;0.97;66.13;101248.46;1744243;82;21095;-45
2022/12/02 13:37:11;;;;;;;8.98;4.87;;;;;;;1.00;66.40;101249.05;1743486;81;21354;-46
2022/12/02 13:39:38;;;;;;;9.70;4.70;;;;;;;1.02;66.56;101250.00;1756777;81;21041;-46
2022/12/02 13:42:05;;;;;;;8.93;4.30;;;;;;;1.02;66.37;101248.71;1742683;81;21019;-40
2022/12/02 13:44:31;;;;;;;14.95;5.53;;;;;;;1.01;66.50;101247.83;1701121;82;21050;-40
2022/12/02 13:46:58;;;;;;;20.05;4.95;;;;;;;1.02;66.74;101250.00;1701351;84;20986;-43
2022/12/02 13:49:24;;;;;;;12.18;4.78;;;;;;;1.00;66.83;101252.50;1743509;82;21072;-45
2022/12/02 13:51:51;;;;;;;13.18;4.78;;;;;;;0.99;66.99;101262.34;1746172;82;21029;-46
2022/12/02 13:54:19;;;;;;;14.33;5.72;;;;;;;0.97;67.25;101256.59;1747318;81;21382;-46
2022/12/02 13:56:45;;;;;;;14.58;5.15;;;;;;;0.96;67.34;101255.71;1749722;81;21043;-45
2022/12/02 16:14:33;;;;;;;8.33;4.72;;;;;;;0.32;73.02;101274.06;1776927;79;22520;-44
2022/12/02 16:17:00;;;;;;;11.38;4.00;;;;;;;0.32;72.89;101273.17;1750420;82;21063;-38
2022/12/02 16:19:27;;;;;;;10.45;3.95;;;;;;;0.35;72.88;101276.83;1781297;80;21021;-39
2022/12/02 16:22:46;;;;;;;8.23;4.03;;;;;;;0.36;72.71;101277.70;1790344;80;21020;-45
2022/12/02 16:25:13;;;;;;;10.63;5.03;;;;;;;0.35;72.74;101275.53;1759092;81;21035;-44
2022/12/02 16:27:40;;;;;;;10.88;4.05;;;;;;;0.36;72.69;101277.70;1759143;81;21095;-40
2022/12/02 16:30:08;;;;;;;9.35;4.12;;;;;;;0.36;72.76;101273.45;1759122;80;21044;-39
2022/12/02 16:32:36;;;;;;;8.33;4.60;;;;;;;0.35;72.83;101270.39;1759127;81;21085;-44
2022/12/02 16:35:04;;;;;;;8.65;4.60;;;;;;;0.36;72.74;101274.73;1759286;81;20979;-43
2022/12/02 16:37:31;;;;;;;10.55;4.65;;;;;;;0.36;72.60;101265.72;1759259;81;21054;-44
2022/12/02 16:39:57;;;;;;;11.25;4.75;;;;;;;0.36;72.51;101272.56;1782981;80;21056;-45
2022/12/02 16:42:24;;;;;;;7.90;4.28;;;;;;;0.36;72.61;101267.01;1763010;81;21052;-39
2022/12/02 16:44:53;;;;;;;13.75;4.95;;;;;;;0.37;72.58;101266.60;1743898;81;21068;-44
2022/12/02 16:47:19;;;;;;;11.10;5.00;;;;;;;0.39;72.65;101269.73;1727671;83;21994;-44
2022/12/02 16:49:47;;;;;;;7.30;4.37;;;;;;;0.44;72.58;101270.88;1733354;81;20987;-43
2022/12/02 16:52:13;;;;;;;10.93;5.10;;;;;;;0.46;72.47;101274.83;1740463;82;21643;-39
2022/12/02 16:54:40;;;;;;;11.05;5.10;;;;;;;0.49;72.27;101270.75;1740246;82;21037;-44
2022/12/02 16:57:07;;;;;;;10.18;4.35;;;;;;;0.53;72.10;101275.27;1740260;82;21039;-38
2022/12/02 16:59:33;;;;;;;8.85;4.40;;;;;;;0.55;71.95;101274.47;1745889;81;20978;-45
2022/12/02 17:02:00;;;;;;;9.98;4.78;;;;;;;0.56;71.80;101276.23;1769933;81;21606;-45
2022/12/02 17:04:26;;;;;;;10.88;4.95;;;;;;;0.58;71.71;101283.27;1769056;81;21037;-38
2022/12/02 17:06:53;;;;;;;7.85;4.75;;;;;;;0.58;71.57;101286.21;1739887;82;21093;-39
2022/12/02 17:09:19;;;;;;;11.43;4.80;;;;;;;0.59;71.54;101277.70;1739781;82;21094;-39
2022/12/02 17:11:46;;;;;;;8.53;4.85;;;;;;;0.61;71.44;101277.38;1740204;82;21069;-46
2022/12/02 17:14:12;;;;;;;15.58;5.03;;;;;;;0.66;71.30;101284.97;1747926;82;21094;-46
2022/12/02 17:16:39;;;;;;;8.75;4.50;;;;;;;0.69;71.21;101281.25;1750895;80;21098;-38
2022/12/02 17:19:06;;;;;;;9.08;3.58;;;;;;;0.71;71.22;101285.70;1750814;82;21094;-39
2022/12/02 17:21:32;;;;;;;9.15;4.67;;;;;;;0.73;71.11;101285.38;1759435;80;21029;-39
2022/12/02 17:23:59;;;;;;;10.58;4.70;;;;;;;0.75;70.94;101285.45;1768911;81;21103;-39
2022/12/02 17:26:25;;;;;;;13.43;5.78;;;;;;;0.75;70.84;101286.38;1769121;81;21454;-46
2022/12/02 17:28:51;;;;;;;11.50;4.85;;;;;;;0.78;70.80;101285.23;1769022;81;21066;-41
2022/12/02 17:31:18;;;;;;;6.90;4.33;;;;;;;0.81;70.70;101290.94;1768891;81;21115;-41
2022/12/02 17:33:45;;;;;;;7.60;4.37;;;;;;;0.82;70.41;101284.13;1768869;81;21071;-39
2022/12/02 17:36:12;;;;;;;9.65;4.83;;;;;;;0.83;70.13;101279.05;1769036;81;21071;-46
2022/12/02 17:38:49;;;;;;;12.98;4.78;;;;;;;0.85;69.90;101278.72;1768937;81;21100;-46
2022/12/02 17:41:10;;;;;;;10.58;4.50;;;;;;;0.88;69.68;101284.46;1767380;81;21095;-46
2022/12/02 17:43:37;;;;;;;13.10;6.00;;;;;;;0.88;69.53;101285.34;1768788;81;21578;-39
2022/12/02 17:46:04;;;;;;;8.50;4.33;;;;;;;0.90;69.37;101286.30;1769093;81;21073;-46
2022/12/02 17:48:31;;;;;;;8.78;4.90;;;;;;;0.90;69.19;101282.84;1742337;81;21118;-39
2022/12/02 17:50:58;;;;;;;13.20;4.83;;;;;;;0.92;68.97;101284.69;1738227;82;21039;-39
2022/12/02 17:53:24;;;;;;;11.38;4.35;;;;;;;0.92;68.71;101282.11;1752593;81;21090;-39
2022/12/02 17:55:51;;;;;;;9.93;4.75;;;;;;;0.93;68.54;101285.57;1739595;82;21063;-40
2022/12/02 17:58:19;;;;;;;14.65;4.83;;;;;;;0.93;68.35;101281.70;1758287;81;21092;-39
2022/12/02 18:00:45;;;;;;;10.40;4.90;;;;;;;0.91;68.34;101286.78;1739429;82;21095;-46
2022/12/02 18:03:12;;;;;;;10.35;5.00;;;;;;;0.92;68.26;101287.67;1755041;80;21046;-40
2022/12/02 18:05:38;;;;;;;12.50;4.83;;;;;;;0.92;68.11;101285.97;1751109;82;21494;-45
2022/12/02 18:08:05;;;;;;;8.60;4.55;;;;;;;0.94;68.00;101284.80;1750787;82;21073;-46
2022/12/02 18:10:31;;;;;;;8.73;4.42;;;;;;;0.94;67.79;101288.25;1751215;82;21046;-40
2022/12/02 18:12:58;;;;;;;8.70;4.42;;;;;;;0.94;67.69;101283.10;1749797;81;21449;-39
2022/12/02 18:15:24;;;;;;;18.23;5.08;;;;;;;0.95;67.64;101281.00;1740067;82;21028;-39
2022/12/02 18:17:51;;;;;;;9.00;5.00;;;;;;;0.95;67.54;101283.98;1740941;81;21145;-46
2022/12/02 18:20:18;;;;;;;11.33;4.90;;;;;;;0.96;67.44;101283.17;1768187;80;21492;-46
2022/12/02 18:22:45;;;;;;;10.50;4.40;;;;;;;0.95;67.33;101284.87;1716558;83;22077;-45
2022/12/02 18:25:11;;;;;;;12.30;5.55;;;;;;;0.94;67.24;101281.81;1699164;83;20987;-46
2022/12/02 18:27:38;;;;;;;7.17;4.45;;;;;;;0.93;67.26;101284.28;1701709;84;21100;-45
2022/12/02 18:30:05;;;;;;;10.45;4.67;;;;;;;0.92;67.38;101288.55;1748997;81;21428;-39
2022/12/02 18:32:32;;;;;;;10.93;4.75;;;;;;;0.94;67.39;101287.38;1778353;81;21567;-40
2022/12/02 18:34:59;;;;;;;10.90;4.62;;;;;;;0.94;67.27;101283.10;1768757;81;21048;-39
2022/12/02 18:37:25;;;;;;;11.73;5.12;;;;;;;0.95;67.14;101287.45;1763589;81;21153;-45
2022/12/02 18:39:51;;;;;;;8.68;4.75;;;;;;;0.95;67.14;101288.73;1754598;81;21553;-45
2022/12/02 18:42:18;;;;;;;11.18;5.05;;;;;;;0.95;66.99;101288.73;1746021;82;21064;-39
2022/12/02 18:44:44;;;;;;;11.33;4.92;;;;;;;0.96;66.79;101298.23;1741453;81;21040;-45
2022/12/02 18:47:11;;;;;;;12.80;4.62;;;;;;;0.96;66.71;101297.35;1752826;82;21491;-43
2022/12/02 18:49:37;;;;;;;9.60;4.78;;;;;;;0.96;66.59;101294.77;1707008;83;21190;-40
2022/12/02 18:52:04;;;;;;;8.80;4.08;;;;;;;0.96;66.45;101295.66;1728504;83;21064;-39
2022/12/02 18:54:31;;;;;;;11.68;4.47;;;;;;;0.95;66.39;101293.00;1728256;83;21084;-40
2022/12/02 18:56:57;;;;;;;12.68;4.90;;;;;;;0.96;66.24;101291.79;1728481;83;21104;-39
2022/12/02 18:59:24;;;;;;;11.22;5.00;;;;;;;0.96;66.15;101294.37;1728003;83;21143;-45
2022/12/02 19:01:51;;;;;;;9.70;4.42;;;;;;;0.97;66.00;101292.67;1728440;83;21067;-46
2022/12/02 19:04:17;;;;;;;14.07;4.35;;;;;;;0.96;65.90;101298.23;1728184;83;21127;-40
2022/12/02 19:06:44;;;;;;;10.38;4.65;;;;;;;0.96;65.88;101298.23;1728109;83;21544;-42
2022/12/02 19:09:11;;;;;;;10.20;4.80;;;;;;;0.94;65.86;101295.98;1728190;83;21155;-46
2022/12/02 19:11:38;;;;;;;10.10;4.28;;;;;;;0.93;65.68;101296.80;1728379;83;21092;-41
2022/12/02 19:14:04;;;;;;;9.15;3.98;;;;;;;0.93;65.48;101301.03;1730502;82;21151;-46
2022/12/02 19:16:31;;;;;;;8.05;4.05;;;;;;;0.93;65.43;101299.74;1733930;83;21067;-47
2022/12/02 19:18:58;;;;;;;7.65;3.83;;;;;;;0.92;65.25;101302.72;1733951;83;21091;-44
2022/12/02 19:21:24;;;;;;;13.95;4.00;;;;;;;0.89;65.25;101302.98;1734086;83;21048;-40
2022/12/02 19:23:51;;;;;;;11.38;3.47;;;;;;;0.88;65.30;101303.38;1733888;83;21159;-39
2022/12/02 19:26:18;;;;;;;9.00;3.92;;;;;;;0.86;65.18;101303.68;1723118;83;21010;-39
2022/12/02 19:28:44;;;;;;;10.65;3.92;;;;;;;0.87;65.04;101308.06;1704413;84;21413;-45
2022/12/02 19:31:11;;;;;;;7.12;4.08;;;;;;;0.88;64.87;101313.69;1704741;84;20962;-45
2022/12/02 19:33:38;;;;;;;10.60;4.47;;;;;;;0.87;64.76;101310.63;1704345;84;21086;-37
2022/12/02 19:36:05;;;;;;;15.00;4.25;;;;;;;0.87;64.85;101311.92;1704410;84;21053;-39
2022/12/02 19:38:31;;;;;;;8.23;4.42;;;;;;;0.87;64.68;101315.78;1704604;84;21076;-39
2022/12/02 19:40:58;;;;;;;14.63;4.95;;;;;;;0.87;64.36;101313.58;1704417;84;21010;-45
2022/12/02 19:43:25;;;;;;;10.80;4.55;;;;;;;0.86;64.31;101319.14;1704580;84;21112;-47
2022/12/02 19:45:51;;;;;;;6.72;4.05;;;;;;;0.87;64.31;101317.45;1704716;84;20990;-40
2022/12/02 19:48:19;;;;;;;8.63;3.67;;;;;;;0.87;64.33;101322.59;1702000;84;21602;-45
2022/12/02 19:50:46;;;;;;;10.55;4.03;;;;;;;0.86;64.46;101319.14;1702012;84;21025;-46
2022/12/02 19:53:12;;;;;;;9.45;4.17;;;;;;;0.87;64.35;101321.31;1752272;81;21108;-39
2022/12/02 19:55:39;;;;;;;8.03;4.72;;;;;;;0.89;64.41;101319.73;1762515;81;21508;-45
2022/12/02 19:58:07;;;;;;;9.20;4.58;;;;;;;0.90;64.24;101318.92;1762525;81;21088;-38
2022/12/02 22:16:11;;;;;;;6.70;3.62;;;;;;;0.31;66.83;101345.66;1819185;79;26633;-38
2022/12/02 22:18:38;;;;;;;10.55;3.67;;;;;;;0.30;66.81;101349.45;1790671;80;21546;-38
2022/12/02 22:21:05;;;;;;;8.30;3.42;;;;;;;0.31;66.73;101355.96;1763546;81;21001;-38
2022/12/02 22:23:32;;;;;;;10.03;3.67;;;;;;;0.30;66.80;101354.59;1763472;81;21091;-44
2022/12/02 22:25:58;;;;;;;10.55;4.12;;;;;;;0.30;66.89;101354.19;1763571;81;21071;-40
2022/12/02 22:28:25;;;;;;;8.10;3.47;;;;;;;0.32;66.85;101356.84;1763786;81;21008;-46
2022/12/02 22:30:52;;;;;;;9.73;4.55;;;;;;;0.33;66.88;101358.61;1763457;81;21562;-40
2022/12/02 22:33:18;;;;;;;7.05;4.15;;;;;;;0.33;66.84;101365.05;1763450;81;21558;-46
2022/12/02 22:35:45;;;;;;;9.55;3.60;;;;;;;0.32;66.98;101361.99;1763487;81;21618;-42
2022/12/02 22:38:12;;;;;;;10.68;5.53;;;;;;;0.31;66.99;101361.52;1763631;81;21629;-46
2022/12/02 22:40:38;;;;;;;7.83;4.05;;;;;;;0.31;66.97;101364.08;1763361;81;21087;-45
2022/12/02 22:43:05;;;;;;;11.53;4.97;;;;;;;0.32;66.96;101359.42;1763590;81;21087;-39
2022/12/02 22:45:32;;;;;;;9.25;4.20;;;;;;;0.33;66.94;101362.07;1763466;81;21676;-40
2022/12/02 22:47:58;;;;;;;8.23;3.95;;;;;;;0.33;66.91;101372.37;1763835;81;21502;-40
2022/12/02 22:50:25;;;;;;;9.95;4.80;;;;;;;0.32;66.84;101371.89;1763592;81;21041;-44
2022/12/02 22:52:51;;;;;;;9.10;3.65;;;;;;;0.33;66.95;101367.22;1763600;81;21479;-41
2022/12/02 22:55:18;;;;;;;7.70;3.92;;;;;;;0.33;66.99;101369.80;1763678;81;21486;-44
2022/12/02 22:57:44;;;;;;;7.62;3.90;;;;;;;0.36;66.97;101376.83;1763747;81;21004;-43
2022/12/02 23:00:13;;;;;;;7.50;4.25;;;;;;;0.36;67.09;101372.97;1763750;81;21103;-44
2022/12/02 23:02:40;;;;;;;16.65;4.87;;;;;;;0.35;67.06;101375.02;1763527;81;20996;-45
2022/12/02 23:05:08;;;;;;;7.12;4.15;;;;;;;0.34;67.09;101374.14;1763632;81;21040;-38
2022/12/02 23:07:35;;;;;;;11.70;4.03;;;;;;;0.36;67.13;101385.44;1763518;81;21013;-44
2022/12/02 23:10:01;;;;;;;5.85;4.00;;;;;;;0.37;67.16;101382.46;1763586;81;21634;-38
2022/12/02 23:12:28;;;;;;;12.35;4.30;;;;;;;0.39;67.16;101382.14;1763794;81;21048;-43
2022/12/02 23:14:55;;;;;;;8.35;4.40;;;;;;;0.38;67.07;101382.54;1759317;81;21087;-43
2022/12/02 23:17:22;;;;;;;8.63;3.83;;;;;;;0.40;67.15;101391.63;1753159;82;21653;-43
2022/12/02 23:19:49;;;;;;;9.13;3.58;;;;;;;0.38;67.30;101390.67;1752953;82;21092;-38
2022/12/02 23:22:15;;;;;;;7.97;4.22;;;;;;;0.40;67.23;101398.07;1753181;82;21531;-43
2022/12/02 23:24:42;;;;;;;14.00;4.83;;;;;;;0.40;67.17;101399.36;1753179;82;21068;-37
2022/12/02 23:27:08;;;;;;;7.25;3.70;;;;;;;0.39;67.20;101401.45;1752869;80;20981;-44
2022/12/02 23:29:35;;;;;;;7.72;3.75;;;;;;;0.39;67.21;101407.89;1752467;82;21108;-37
2022/12/02 23:32:01;;;;;;;10.78;4.47;;;;;;;0.39;67.31;101413.03;1752520;82;21053;-39
2022/12/02 23:34:28;;;;;;;8.50;3.67;;;;;;;0.39;67.39;101416.49;1752605;82;21057;-44
2022/12/02 23:36:55;;;;;;;9.50;4.10;;;;;;;0.42;67.32;101414.11;1752463;80;21029;-40
2022/12/02 23:39:22;;;;;;;13.88;4.35;;;;;;;0.42;67.32;101414.11;1752588;82;21128;-40
2022/12/02 23:41:49;;;;;;;8.93;4.17;;;;;;;0.41;67.37;101414.03;1752674;82;21095;-44
2022/12/02 23:44:17;;;;;;;10.40;4.10;;;;;;;0.40;67.41;101421.24;1752531;82;21037;-45
2022/12/02 23:46:43;;;;;;;7.37;4.15;;;;;;;0.36;67.49;101421.48;1752416;82;21052;-46
2022/12/02 23:49:10;;;;;;;10.63;4.97;;;;;;;0.34;67.64;101425.63;1752674;82;21089;-39
2022/12/02 23:51:37;;;;;;;7.97;4.05;;;;;;;0.34;67.75;101428.20;1752718;82;21101;-39
2022/12/02 23:54:04;;;;;;;13.62;4.10;;;;;;;0.35;67.80;101430.02;1752554;82;21559;-40
2022/12/02 23:56:30;;;;;;;9.43;4.12;;;;;;;0.36;67.94;101436.05;1752398;82;21088;-40
2022/12/02 23:58:57;;;;;;;9.05;4.37;;;;;;;0.35;67.79;101436.45;1752518;82;21088;-40
